Time;durP1;ratioP1;P1;durP2;ratioP2;P2;SDS_P1;SDS_P2;PMS_P1;PMS_P2;Temp;Humidity;BMP_temperature;BMP_pressure;BME280_temperature;BME280_humidity;BME280_pressure;Samples;Min_cycle;Max_cycle;Signal;HPM_P1;HPM_P2
2022/08/20 00:00:30;;;;;;;4.25;3.22;;;16.60;62.40;;;;;;5034832;28;20664;-36
2022/08/20 00:03:05;;;;;;;3.53;2.60;;;16.60;62.40;;;;;;5061216;28;20218;-36
2022/08/20 00:05:39;;;;;;;2.90;2.60;;;16.70;62.50;;;;;;5070694;28;20205;-40
2022/08/20 00:08:11;;;;;;;3.30;2.65;;;16.70;62.50;;;;;;5070466;28;20227;-36
2022/08/20 00:10:45;;;;;;;2.75;2.50;;;16.70;62.50;;;;;;5070455;28;20556;-36
2022/08/20 00:13:19;;;;;;;3.60;3.00;;;16.70;62.50;;;;;;5070246;28;20210;-45
2022/08/20 00:15:50;;;;;;;3.95;3.17;;;16.70;62.40;;;;;;5070242;28;20194;-45
2022/08/20 00:18:22;;;;;;;3.42;2.95;;;16.70;62.50;;;;;;5069944;28;20211;-45
2022/08/20 00:20:56;;;;;;;5.00;2.97;;;16.80;62.50;;;;;;5070319;28;20667;-45
2022/08/20 00:23:27;;;;;;;2.97;2.65;;;16.80;62.50;;;;;;5069886;28;20191;-38
2022/08/20 00:25:57;;;;;;;3.03;2.65;;;16.80;62.40;;;;;;5069993;28;20599;-37
2022/08/20 00:28:28;;;;;;;2.63;2.40;;;16.90;62.40;;;;;;5069931;28;20317;-36
2022/08/20 00:30:59;;;;;;;4.03;3.05;;;16.90;62.40;;;;;;5061958;28;20203;-37
2022/08/20 00:33:32;;;;;;;3.22;2.92;;;16.90;62.40;;;;;;5062625;28;20203;-36
2022/08/20 00:36:05;;;;;;;3.78;2.88;;;16.90;62.50;;;;;;5069603;28;20246;-42
2022/08/20 00:38:37;;;;;;;2.80;2.53;;;16.90;62.40;;;;;;5050974;28;20219;-36
2022/08/20 00:41:08;;;;;;;2.88;2.42;;;17.00;62.50;;;;;;5040118;28;20648;-36
2022/08/20 00:43:41;;;;;;;3.47;2.88;;;17.00;62.50;;;;;;5049740;28;20232;-36
2022/08/20 00:46:16;;;;;;;3.67;2.85;;;17.00;62.50;;;;;;5049156;28;20195;-36
2022/08/20 00:48:51;;;;;;;3.55;2.80;;;17.00;62.50;;;;;;5063277;28;20274;-39
2022/08/20 00:51:28;;;;;;;3.17;2.88;;;17.00;62.50;;;;;;5069443;28;20194;-38
2022/08/20 00:54:03;;;;;;;3.80;2.35;;;17.00;62.40;;;;;;5069576;28;20233;-36
2022/08/20 00:56:35;;;;;;;3.10;2.70;;;17.10;62.40;;;;;;5069615;28;20206;-37
2022/08/20 00:59:10;;;;;;;3.63;2.88;;;17.10;62.40;;;;;;5069113;28;20222;-36
2022/08/20 01:01:42;;;;;;;3.28;2.45;;;17.10;62.40;;;;;;5055742;28;20199;-36
2022/08/20 01:04:14;;;;;;;3.00;2.70;;;17.10;62.40;;;;;;5066620;28;20559;-41
2022/08/20 01:06:46;;;;;;;2.95;2.65;;;17.10;62.40;;;;;;5069464;28;20198;-36
2022/08/20 01:09:17;;;;;;;3.58;2.88;;;17.20;62.40;;;;;;5069533;28;20658;-43
2022/08/20 01:11:48;;;;;;;3.30;2.70;;;17.20;62.40;;;;;;5069574;28;20199;-36
2022/08/20 01:14:27;;;;;;;3.50;2.60;;;17.20;62.40;;;;;;5054768;28;20648;-39
2022/08/20 01:17:00;;;;;;;2.75;2.55;;;17.20;62.40;;;;;;5049268;28;20253;-41
2022/08/20 01:19:36;;;;;;;2.97;2.67;;;17.30;62.40;;;;;;5067904;28;20575;-37
2022/08/20 01:23:25;;;;;;;2.72;2.47;;;17.30;63.20;;;;;;5068837;28;20205;-38
2022/08/20 01:25:04;;;;;;;2.95;2.70;;;17.30;62.40;;;;;;5068890;28;20201;-36
2022/08/20 01:27:38;;;;;;;2.83;2.63;;;17.30;62.30;;;;;;5068839;28;20272;-38
2022/08/20 01:30:10;;;;;;;2.80;2.60;;;17.40;62.30;;;;;;5068011;28;20198;-38
2022/08/20 01:32:41;;;;;;;3.45;2.55;;;17.40;62.30;;;;;;5052335;28;20556;-37
2022/08/20 01:35:12;;;;;;;2.40;2.20;;;17.40;62.30;;;;;;5068837;28;20210;-36
2022/08/20 01:37:43;;;;;;;2.58;2.38;;;17.50;62.40;;;;;;5068927;28;20223;-38
2022/08/20 01:40:19;;;;;;;2.92;2.40;;;17.50;62.40;;;;;;5069197;28;20202;-39
2022/08/20 01:42:51;;;;;;;2.70;2.50;;;17.50;62.40;;;;;;5068781;28;20191;-38
2022/08/20 01:45:22;;;;;;;2.50;2.30;;;17.50;62.40;;;;;;5068792;28;20609;-37
2022/08/20 01:47:53;;;;;;;3.17;2.67;;;17.50;62.40;;;;;;5068113;28;20733;-37
2022/08/20 01:50:28;;;;;;;4.38;2.80;;;17.50;62.30;;;;;;5038734;28;20199;-37
2022/08/20 01:53:05;;;;;;;3.20;2.85;;;17.60;62.40;;;;;;5029133;28;20206;-37
2022/08/20 01:55:36;;;;;;;3.72;2.75;;;17.60;62.40;;;;;;5029153;28;20541;-36
2022/08/20 01:58:09;;;;;;;2.85;2.60;;;17.60;62.30;;;;;;5029610;28;20258;-40
2022/08/20 02:00:40;;;;;;;2.70;2.50;;;17.70;62.40;;;;;;5038356;28;20686;-37
2022/08/20 02:03:10;;;;;;;3.10;2.30;;;17.70;62.40;;;;;;5058182;28;20198;-37
2022/08/20 02:05:41;;;;;;;2.47;2.28;;;17.70;62.40;;;;;;5072415;28;20194;-37
2022/08/20 02:08:12;;;;;;;2.88;2.42;;;17.80;62.50;;;;;;5071916;28;20238;-37
2022/08/20 02:10:46;;;;;;;2.95;2.70;;;17.80;62.40;;;;;;5072201;28;20305;-37
2022/08/20 02:13:18;;;;;;;2.80;2.60;;;17.80;62.40;;;;;;5072841;28;20206;-41
2022/08/20 02:15:49;;;;;;;2.67;2.47;;;17.80;62.40;;;;;;5072713;28;20201;-46
2022/08/20 02:18:20;;;;;;;2.83;2.53;;;17.90;62.30;;;;;;5072040;28;20218;-40
2022/08/20 02:20:51;;;;;;;2.45;2.25;;;17.90;62.20;;;;;;5072751;28;20195;-38
2022/08/20 02:23:23;;;;;;;2.92;2.42;;;17.90;62.20;;;;;;5072652;28;20274;-45
2022/08/20 02:25:54;;;;;;;2.90;2.60;;;17.90;62.10;;;;;;5072668;28;20576;-37
2022/08/20 02:28:26;;;;;;;2.25;2.05;;;18.00;62.10;;;;;;5072177;28;20226;-46
2022/08/20 02:30:59;;;;;;;2.80;2.20;;;18.00;62.10;;;;;;5064624;28;20199;-37
2022/08/20 02:33:30;;;;;;;2.60;2.40;;;18.10;62.20;;;;;;5059038;28;20194;-40
2022/08/20 02:36:00;;;;;;;2.85;2.58;;;18.10;62.20;;;;;;5072541;28;20662;-38
2022/08/20 02:38:33;;;;;;;2.80;2.50;;;18.10;62.10;;;;;;5069225;28;20241;-37
2022/08/20 02:41:04;;;;;;;2.80;2.60;;;18.20;62.10;;;;;;5052161;28;20200;-43
2022/08/20 02:43:37;;;;;;;2.55;2.35;;;18.20;62.10;;;;;;5052147;28;20203;-46
2022/08/20 02:46:08;;;;;;;2.65;2.45;;;18.20;62.10;;;;;;5052401;28;20274;-42
2022/08/20 02:48:39;;;;;;;2.53;2.33;;;18.20;62.00;;;;;;5059002;28;20233;-38
2022/08/20 02:51:10;;;;;;;2.58;2.38;;;18.30;62.10;;;;;;5071867;28;20286;-36
2022/08/20 02:53:42;;;;;;;2.65;2.45;;;18.30;61.90;;;;;;5071974;28;20217;-43
2022/08/20 02:56:13;;;;;;;2.67;2.20;;;18.30;61.90;;;;;;5071668;28;20203;-40
2022/08/20 02:58:46;;;;;;;3.22;2.47;;;18.40;61.90;;;;;;5071705;28;20215;-44
2022/08/20 03:01:19;;;;;;;2.50;2.30;;;18.40;61.80;;;;;;5061059;28;20199;-36
2022/08/20 03:03:50;;;;;;;3.00;2.20;;;18.50;61.80;;;;;;5059202;28;20191;-37
2022/08/20 03:06:20;;;;;;;2.58;2.38;;;18.50;61.80;;;;;;5071326;28;20195;-37
2022/08/20 03:08:51;;;;;;;2.78;2.47;;;18.50;61.70;;;;;;5071415;28;20226;-37
2022/08/20 03:11:22;;;;;;;2.60;2.40;;;18.60;61.80;;;;;;5071811;28;20785;-39
2022/08/20 03:13:54;;;;;;;2.47;2.28;;;18.60;61.70;;;;;;5072096;28;20225;-40
2022/08/20 03:16:25;;;;;;;2.60;2.40;;;18.70;61.80;;;;;;5071614;28;20210;-37
2022/08/20 03:18:56;;;;;;;2.30;2.10;;;18.70;61.80;;;;;;5064562;28;20551;-36
2022/08/20 03:21:27;;;;;;;2.92;2.10;;;18.70;61.70;;;;;;5070987;28;20198;-36
2022/08/20 03:23:58;;;;;;;3.45;2.80;;;18.70;61.70;;;;;;5071407;28;20202;-36
2022/08/20 03:26:29;;;;;;;2.30;2.10;;;18.80;61.70;;;;;;5070836;28;20203;-36
2022/08/20 03:29:01;;;;;;;2.40;2.20;;;18.80;61.60;;;;;;5070835;28;20989;-37
2022/08/20 03:31:32;;;;;;;2.33;2.13;;;18.80;61.50;;;;;;5058131;28;20211;-40
2022/08/20 03:34:03;;;;;;;2.40;2.20;;;18.90;62.70;;;;;;5059101;28;20199;-42
2022/08/20 03:36:34;;;;;;;2.45;2.25;;;18.90;62.00;;;;;;5070950;28;20206;-39
2022/08/20 03:39:10;;;;;;;2.80;2.50;;;19.00;62.10;;;;;;5070638;28;20219;-38
2022/08/20 03:41:41;;;;;;;2.30;2.10;;;19.00;62.20;;;;;;5070414;28;20190;-36
2022/08/20 03:44:13;;;;;;;2.55;2.10;;;19.00;62.10;;;;;;5070569;28;20199;-37
2022/08/20 03:46:44;;;;;;;2.45;2.25;;;19.00;62.10;;;;;;5070442;28;20213;-50
2022/08/20 03:49:15;;;;;;;2.35;2.15;;;19.10;62.10;;;;;;5069833;28;20233;-42
2022/08/20 03:51:46;;;;;;;2.25;2.05;;;19.10;62.10;;;;;;5070439;28;20233;-40
2022/08/20 03:54:16;;;;;;;2.70;2.13;;;19.10;62.00;;;;;;5051208;28;20196;-40
2022/08/20 03:56:47;;;;;;;2.17;1.95;;;19.10;61.90;;;;;;5030708;28;20286;-48
2022/08/20 03:59:20;;;;;;;2.30;1.90;;;19.20;62.00;;;;;;5030658;28;20200;-38
2022/08/20 04:01:51;;;;;;;2.38;2.17;;;19.20;61.80;;;;;;5046199;28;20199;-36
2022/08/20 04:04:21;;;;;;;2.53;2.33;;;19.20;61.80;;;;;;5059669;28;20195;-40
2022/08/20 04:06:52;;;;;;;3.45;2.10;;;19.20;61.70;;;;;;5070436;28;20207;-41
2022/08/20 04:09:23;;;;;;;2.42;2.22;;;19.20;61.70;;;;;;5069853;28;20226;-40
2022/08/20 04:11:59;;;;;;;2.05;1.92;;;19.20;61.50;;;;;;5070253;28;20199;-43
2022/08/20 04:14:32;;;;;;;2.30;2.10;;;19.20;61.50;;;;;;5070332;28;20646;-39
2022/08/20 04:17:07;;;;;;;2.50;2.00;;;19.20;61.50;;;;;;5070209;28;20195;-38
2022/08/20 04:19:39;;;;;;;2.63;2.40;;;19.20;61.50;;;;;;5069513;28;20201;-36
2022/08/20 04:22:12;;;;;;;2.30;2.08;;;19.20;61.50;;;;;;5069407;28;20210;-37
2022/08/20 04:24:43;;;;;;;2.60;2.15;;;19.20;61.60;;;;;;5069829;28;20661;-37
2022/08/20 04:27:15;;;;;;;2.05;1.85;;;19.20;61.60;;;;;;5069623;28;20238;-38
2022/08/20 04:29:48;;;;;;;2.45;2.13;;;19.10;61.60;;;;;;5069614;28;20233;-36
2022/08/20 04:32:20;;;;;;;2.13;1.92;;;19.20;61.60;;;;;;5050883;28;20203;-36
2022/08/20 04:34:51;;;;;;;2.17;1.98;;;19.20;61.50;;;;;;5061619;28;20194;-38
2022/08/20 04:37:23;;;;;;;1.98;1.88;;;19.20;61.50;;;;;;5057885;28;20296;-43
2022/08/20 04:42:39;;;;;;;2.40;2.00;;;19.10;61.40;;;;;;5037084;28;20196;-36
2022/08/20 04:45:12;;;;;;;3.13;2.20;;;19.10;61.30;;;;;;5048818;28;20215;-40
2022/08/20 04:47:43;;;;;;;2.28;2.08;;;19.10;61.20;;;;;;5049269;28;20241;-39
2022/08/20 04:50:15;;;;;;;2.30;2.10;;;19.10;61.30;;;;;;5063456;28;20223;-36
2022/08/20 04:52:46;;;;;;;2.67;2.33;;;19.10;61.30;;;;;;5069533;28;20199;-37
2022/08/20 04:55:18;;;;;;;2.20;2.00;;;19.00;61.20;;;;;;5070003;28;20201;-38
2022/08/20 04:57:49;;;;;;;2.40;2.10;;;19.00;61.30;;;;;;5069283;28;20223;-38
2022/08/20 05:00:21;;;;;;;2.85;2.40;;;19.10;61.50;;;;;;5066665;28;20282;-36
2022/08/20 05:02:56;;;;;;;2.28;2.08;;;19.00;61.40;;;;;;5049364;28;20233;-38
2022/08/20 05:05:26;;;;;;;2.70;2.35;;;19.00;61.40;;;;;;5064078;28;20207;-36
2022/08/20 05:07:57;;;;;;;2.72;2.28;;;19.10;61.40;;;;;;5069370;28;20305;-39
2022/08/20 05:10:28;;;;;;;2.65;2.42;;;19.00;61.20;;;;;;5069397;28;20563;-41
2022/08/20 05:12:59;;;;;;;2.33;2.10;;;19.00;61.30;;;;;;5069072;28;20202;-36
2022/08/20 05:15:31;;;;;;;2.50;2.10;;;19.00;61.20;;;;;;5069342;28;20674;-39
2022/08/20 05:18:04;;;;;;;2.50;2.28;;;19.00;61.10;;;;;;5068547;28;20219;-40
2022/08/20 05:20:39;;;;;;;2.08;1.98;;;18.90;61.10;;;;;;5068209;28;20195;-36
2022/08/20 05:23:11;;;;;;;2.85;2.40;;;18.90;61.10;;;;;;5060211;28;20191;-40
2022/08/20 05:25:42;;;;;;;2.50;2.30;;;18.90;61.10;;;;;;5048639;28;20655;-37
2022/08/20 05:28:19;;;;;;;2.63;2.42;;;18.90;61.20;;;;;;5048531;28;20577;-40
2022/08/20 05:30:53;;;;;;;2.60;2.40;;;18.90;61.10;;;;;;5048603;28;20202;-37
2022/08/20 05:33:24;;;;;;;2.65;2.45;;;18.90;61.20;;;;;;5049006;28;20222;-37
2022/08/20 05:35:56;;;;;;;2.72;2.42;;;18.80;61.10;;;;;;5066580;28;20207;-36
2022/08/20 05:38:29;;;;;;;2.88;2.60;;;18.90;61.10;;;;;;5069276;28;20559;-36
2022/08/20 05:41:00;;;;;;;2.78;2.40;;;18.80;61.00;;;;;;5069092;28;20203;-38
2022/08/20 05:43:32;;;;;;;3.13;2.40;;;18.80;61.00;;;;;;5068756;28;20658;-36
2022/08/20 05:46:05;;;;;;;2.47;2.28;;;18.80;61.00;;;;;;5068638;28;20206;-37
2022/08/20 05:48:35;;;;;;;2.60;2.40;;;18.80;60.90;;;;;;5060747;28;20219;-40
2022/08/20 05:51:07;;;;;;;3.22;2.50;;;18.70;60.90;;;;;;5047635;28;20195;-36
2022/08/20 05:53:38;;;;;;;2.60;2.40;;;18.70;60.90;;;;;;5049022;28;20291;-37
2022/08/20 05:56:10;;;;;;;2.58;2.28;;;18.70;60.90;;;;;;5049127;28;20201;-40
2022/08/20 05:58:40;;;;;;;3.15;2.85;;;18.70;61.00;;;;;;5048637;28;20238;-41
2022/08/20 06:01:13;;;;;;;2.88;2.55;;;18.70;61.00;;;;;;5048807;28;20209;-36
2022/08/20 06:06:31;;;;;;;3.42;2.85;;;18.60;60.90;;;;;;5028814;28;20710;-37
2022/08/20 06:09:01;;;;;;;3.05;2.72;;;18.60;60.80;;;;;;5028712;28;20239;-39
2022/08/20 06:11:33;;;;;;;3.33;2.50;;;18.70;60.90;;;;;;5028477;28;20192;-40
2022/08/20 06:14:04;;;;;;;4.03;3.05;;;18.60;60.90;;;;;;5027950;28;20210;-40
2022/08/20 06:16:37;;;;;;;4.45;2.83;;;18.60;60.90;;;;;;5029206;28;20599;-37
2022/08/20 06:19:08;;;;;;;3.75;2.80;;;18.60;60.90;;;;;;5029758;28;20260;-42
2022/08/20 06:21:39;;;;;;;2.55;2.35;;;18.60;60.90;;;;;;5068828;28;20198;-51
2022/08/20 06:24:12;;;;;;;2.92;2.72;;;18.50;60.90;;;;;;5068609;28;20198;-42
2022/08/20 06:26:43;;;;;;;3.00;2.70;;;18.50;60.90;;;;;;5068338;28;20203;-38
2022/08/20 06:29:14;;;;;;;3.00;2.70;;;18.50;60.90;;;;;;5067620;28;20222;-42
2022/08/20 06:31:46;;;;;;;3.33;3.03;;;18.50;61.00;;;;;;5053530;28;20204;-41
2022/08/20 06:34:17;;;;;;;4.25;2.80;;;18.50;61.00;;;;;;5049149;28;20203;-42
2022/08/20 06:36:48;;;;;;;3.50;2.80;;;18.50;61.00;;;;;;5068586;28;20206;-41
2022/08/20 06:39:19;;;;;;;2.60;2.40;;;18.50;61.00;;;;;;5068374;28;20201;-42
2022/08/20 06:41:50;;;;;;;3.97;2.75;;;18.50;61.10;;;;;;5068288;28;20670;-43
2022/08/20 06:44:21;;;;;;;2.95;2.70;;;18.50;61.00;;;;;;5069242;28;20259;-42
2022/08/20 06:46:54;;;;;;;3.25;2.53;;;18.40;61.00;;;;;;5070012;28;20206;-37
2022/08/20 06:49:25;;;;;;;3.67;2.75;;;18.40;61.00;;;;;;5035010;28;20220;-40
2022/08/20 06:51:55;;;;;;;2.60;2.40;;;18.40;61.00;;;;;;5071995;28;20195;-36
2022/08/20 06:54:26;;;;;;;2.97;2.75;;;18.40;61.10;;;;;;5071147;28;20553;-39
2022/08/20 06:56:57;;;;;;;3.33;3.03;;;18.40;61.00;;;;;;5070978;28;20205;-40
2022/08/20 06:59:27;;;;;;;4.13;3.17;;;18.30;61.00;;;;;;5071220;28;20678;-36
2022/08/20 07:02:00;;;;;;;4.20;3.33;;;18.40;61.10;;;;;;5055004;28;20206;-43
2022/08/20 07:04:31;;;;;;;3.17;2.70;;;18.40;61.00;;;;;;5052573;28;20195;-38
2022/08/20 07:07:01;;;;;;;3.28;2.95;;;18.40;61.00;;;;;;5071845;28;20202;-45
2022/08/20 07:09:32;;;;;;;3.15;2.83;;;18.30;61.00;;;;;;5071497;28;20979;-41
2022/08/20 07:12:03;;;;;;;3.10;2.70;;;18.30;61.00;;;;;;5070968;28;20655;-38
2022/08/20 07:14:34;;;;;;;3.83;3.28;;;18.30;61.00;;;;;;5070535;28;20191;-41
2022/08/20 07:17:08;;;;;;;3.83;2.80;;;18.30;61.00;;;;;;5050858;28;20261;-37
2022/08/20 07:19:39;;;;;;;3.10;2.80;;;18.30;61.00;;;;;;5033305;28;20196;-36
2022/08/20 07:22:13;;;;;;;2.67;2.47;;;18.30;61.00;;;;;;5051184;28;20196;-35
2022/08/20 07:24:44;;;;;;;3.20;2.72;;;18.20;61.00;;;;;;5051093;28;20192;-40
2022/08/20 07:27:15;;;;;;;3.03;2.80;;;18.20;60.90;;;;;;5050848;28;20219;-46
2022/08/20 07:32:37;;;;;;;4.32;3.05;;;18.20;61.00;;;;;;5031066;28;20327;-38
2022/08/20 07:35:11;;;;;;;3.25;2.95;;;18.20;60.90;;;;;;5040734;28;20198;-36
2022/08/20 07:37:43;;;;;;;2.90;2.60;;;18.20;60.90;;;;;;5070440;28;20584;-36
2022/08/20 07:40:17;;;;;;;3.88;3.05;;;18.20;60.90;;;;;;5070554;28;20537;-45
2022/08/20 07:42:49;;;;;;;2.85;2.65;;;18.10;60.90;;;;;;5070376;28;20214;-39
2022/08/20 07:45:20;;;;;;;3.03;2.80;;;18.10;61.00;;;;;;5070586;28;20198;-39
2022/08/20 07:47:54;;;;;;;3.55;3.25;;;18.10;61.00;;;;;;5070846;28;20214;-39
2022/08/20 07:50:27;;;;;;;3.45;3.10;;;18.10;61.00;;;;;;5070359;28;20226;-48
2022/08/20 07:53:00;;;;;;;4.63;3.42;;;18.10;61.10;;;;;;5070445;28;20191;-40
2022/08/20 07:55:31;;;;;;;4.00;3.30;;;18.10;61.10;;;;;;5069201;28;20231;-38
2022/08/20 07:58:07;;;;;;;3.67;3.30;;;18.10;61.10;;;;;;5047272;28;20269;-40
2022/08/20 08:00:39;;;;;;;4.03;3.15;;;18.00;61.10;;;;;;5050702;28;20689;-40
2022/08/20 08:03:11;;;;;;;3.28;2.95;;;18.00;61.00;;;;;;5050407;28;20565;-44
2022/08/20 08:05:45;;;;;;;3.40;3.10;;;18.00;61.00;;;;;;5058674;28;20206;-39
2022/08/20 08:08:20;;;;;;;3.40;2.83;;;18.00;61.00;;;;;;5070504;28;20694;-54
2022/08/20 08:10:54;;;;;;;4.13;3.00;;;18.00;61.00;;;;;;5070392;28;20221;-40
2022/08/20 08:13:25;;;;;;;4.18;3.08;;;18.00;61.00;;;;;;5069909;28;20195;-51
2022/08/20 08:15:58;;;;;;;3.13;2.80;;;18.00;61.00;;;;;;5070601;28;20191;-38
2022/08/20 08:18:39;;;;;;;3.33;3.00;;;18.00;61.10;;;;;;5070067;28;20222;-51
2022/08/20 08:21:11;;;;;;;3.35;3.05;;;17.90;61.10;;;;;;5069230;28;20545;-40
2022/08/20 08:23:45;;;;;;;3.42;2.90;;;17.90;61.10;;;;;;5070196;28;20198;-47
2022/08/20 08:26:18;;;;;;;2.83;2.50;;;17.90;61.10;;;;;;5069886;28;20198;-39
2022/08/20 08:28:48;;;;;;;3.83;3.10;;;17.90;61.30;;;;;;5069549;28;20223;-45
2022/08/20 08:31:19;;;;;;;3.75;3.30;;;17.90;61.30;;;;;;5058631;28;20230;-37
2022/08/20 08:33:52;;;;;;;3.10;2.65;;;17.90;61.30;;;;;;5050465;28;20207;-41
2022/08/20 08:36:25;;;;;;;3.30;3.00;;;17.90;61.30;;;;;;5061689;28;20199;-37
2022/08/20 08:38:56;;;;;;;3.15;2.60;;;17.90;61.30;;;;;;5069248;28;20226;-41
2022/08/20 08:41:32;;;;;;;3.65;2.88;;;17.90;61.20;;;;;;5069665;28;20693;-39
2022/08/20 08:44:09;;;;;;;3.08;2.78;;;17.90;61.20;;;;;;5069083;28;20198;-38
2022/08/20 08:46:44;;;;;;;3.00;2.70;;;17.90;61.20;;;;;;5060486;28;20277;-40
2022/08/20 08:49:21;;;;;;;3.20;2.88;;;17.80;61.20;;;;;;5049539;28;20191;-36
2022/08/20 08:51:55;;;;;;;3.20;2.90;;;17.80;61.20;;;;;;5064855;28;20190;-37
2022/08/20 08:54:30;;;;;;;3.25;2.90;;;17.80;61.30;;;;;;5069338;28;20199;-36
2022/08/20 08:57:01;;;;;;;3.47;2.92;;;17.80;61.30;;;;;;5069333;28;20202;-37
2022/08/20 08:59:32;;;;;;;3.38;3.08;;;17.80;61.30;;;;;;5069189;28;20275;-43
2022/08/20 09:02:03;;;;;;;2.92;2.63;;;17.80;61.30;;;;;;5052209;28;20195;-37
2022/08/20 09:04:39;;;;;;;3.45;3.00;;;17.80;61.30;;;;;;5049080;28;20199;-42
2022/08/20 09:07:15;;;;;;;3.28;2.95;;;17.70;61.20;;;;;;5065830;28;20940;-36
2022/08/20 09:09:48;;;;;;;3.10;2.70;;;17.70;61.20;;;;;;5068849;28;20218;-36
2022/08/20 09:12:20;;;;;;;3.22;2.92;;;17.70;61.20;;;;;;5069123;28;20195;-36
2022/08/20 09:14:52;;;;;;;3.10;2.80;;;17.70;61.20;;;;;;5069070;28;20206;-40
2022/08/20 09:17:24;;;;;;;3.40;3.10;;;17.70;61.20;;;;;;5068995;28;20749;-41
2022/08/20 09:19:57;;;;;;;3.25;2.95;;;17.70;61.30;;;;;;5068473;28;20572;-36
2022/08/20 09:22:27;;;;;;;3.55;3.20;;;17.70;62.00;;;;;;5067970;28;20289;-36
2022/08/20 09:24:59;;;;;;;3.17;2.88;;;17.70;61.30;;;;;;5045755;28;20210;-38
2022/08/20 09:27:30;;;;;;;3.97;2.90;;;17.70;61.40;;;;;;5036472;28;20212;-37
2022/08/20 09:30:00;;;;;;;3.33;3.03;;;17.60;61.30;;;;;;5031407;28;20223;-36
2022/08/20 09:32:31;;;;;;;3.00;2.70;;;17.70;61.30;;;;;;5048987;28;20199;-36
2022/08/20 09:35:04;;;;;;;3.35;2.90;;;17.60;61.30;;;;;;5049690;28;20203;-36
2022/08/20 09:37:35;;;;;;;3.03;2.75;;;17.60;61.20;;;;;;5049607;28;20224;-43
2022/08/20 09:40:07;;;;;;;3.15;2.80;;;17.60;61.30;;;;;;5048098;28;20574;-36
2022/08/20 09:42:39;;;;;;;3.03;2.72;;;17.60;61.20;;;;;;5042054;28;20668;-45
2022/08/20 09:45:10;;;;;;;2.97;2.70;;;17.60;61.30;;;;;;5028425;28;20211;-40
2022/08/20 09:47:41;;;;;;;3.47;3.17;;;17.60;61.30;;;;;;5031253;28;20570;-43
2022/08/20 09:50:14;;;;;;;3.53;3.15;;;17.60;61.30;;;;;;5029538;28;20227;-37
2022/08/20 09:52:49;;;;;;;3.15;2.85;;;17.60;61.40;;;;;;5029920;28;20196;-42
2022/08/20 09:55:25;;;;;;;3.65;3.35;;;17.50;61.40;;;;;;5029747;28;20206;-39
2022/08/20 09:57:56;;;;;;;3.72;2.78;;;17.60;61.40;;;;;;5029485;28;20243;-44
2022/08/20 10:00:27;;;;;;;3.33;3.03;;;17.60;61.40;;;;;;5033265;28;20207;-47
2022/08/20 10:02:59;;;;;;;3.10;2.80;;;17.50;61.40;;;;;;5049337;28;20207;-36
2022/08/20 10:05:32;;;;;;;2.92;2.67;;;17.50;61.40;;;;;;5049364;28;20596;-38
2022/08/20 10:08:06;;;;;;;2.88;2.58;;;17.50;61.40;;;;;;5049197;28;20215;-40
2022/08/20 10:10:37;;;;;;;2.78;2.58;;;17.50;61.40;;;;;;5048926;28;20278;-51
2022/08/20 10:13:07;;;;;;;3.03;2.75;;;17.50;61.40;;;;;;5049660;28;20196;-41
2022/08/20 10:15:38;;;;;;;3.05;2.75;;;17.50;61.40;;;;;;5048880;28;20719;-43
2022/08/20 10:18:09;;;;;;;3.25;2.92;;;17.50;61.30;;;;;;5049554;28;20217;-45
2022/08/20 10:20:41;;;;;;;3.10;2.80;;;17.50;62.20;;;;;;5033365;28;20196;-50
2022/08/20 10:23:12;;;;;;;2.97;2.70;;;17.50;61.40;;;;;;5033843;28;20211;-47
2022/08/20 10:25:44;;;;;;;3.20;2.90;;;17.50;61.40;;;;;;5033113;28;20263;-49
2022/08/20 10:28:15;;;;;;;3.08;2.42;;;17.50;61.40;;;;;;5033002;28;20216;-39
2022/08/20 10:30:46;;;;;;;3.42;3.10;;;17.50;61.50;;;;;;5039377;28;20235;-44
2022/08/20 10:33:16;;;;;;;3.55;2.80;;;17.50;61.50;;;;;;5033104;28;20202;-39
2022/08/20 10:35:49;;;;;;;3.55;2.70;;;17.40;61.50;;;;;;5033921;28;20223;-39
2022/08/20 10:38:20;;;;;;;2.67;2.47;;;17.40;61.50;;;;;;5033046;28;20224;-48
2022/08/20 10:40:50;;;;;;;3.97;2.55;;;17.50;61.60;;;;;;5043185;28;20194;-41
2022/08/20 10:43:21;;;;;;;2.63;2.42;;;17.40;61.50;;;;;;5052674;28;20187;-36
2022/08/20 10:45:53;;;;;;;3.30;3.00;;;17.50;61.50;;;;;;5053156;28;20210;-35
2022/08/20 10:48:24;;;;;;;3.35;2.95;;;17.40;61.50;;;;;;5051753;28;20211;-40
2022/08/20 10:50:57;;;;;;;2.92;2.63;;;17.40;61.50;;;;;;5053130;28;20242;-36
2022/08/20 10:53:27;;;;;;;2.63;2.42;;;17.40;61.50;;;;;;5052621;28;20195;-39
2022/08/20 10:55:58;;;;;;;3.30;2.92;;;17.40;61.50;;;;;;5051718;28;20211;-42
2022/08/20 10:58:30;;;;;;;3.35;3.05;;;17.40;61.50;;;;;;5052831;28;20577;-38
2022/08/20 11:01:00;;;;;;;2.60;2.40;;;17.40;61.60;;;;;;5052045;28;20298;-39
2022/08/20 11:03:31;;;;;;;2.78;2.40;;;17.40;61.60;;;;;;5052087;28;20278;-36
2022/08/20 11:06:04;;;;;;;2.88;2.50;;;17.40;61.60;;;;;;5051859;28;20200;-36
2022/08/20 11:08:35;;;;;;;2.60;2.40;;;17.40;61.60;;;;;;5051970;28;20208;-43
2022/08/20 11:11:06;;;;;;;2.65;2.45;;;17.40;61.60;;;;;;5047173;28;20238;-36
2022/08/20 11:13:37;;;;;;;2.63;2.42;;;17.40;61.60;;;;;;5045897;28;20195;-39
2022/08/20 11:16:08;;;;;;;2.90;2.38;;;17.40;61.60;;;;;;5052289;28;20214;-45
2022/08/20 11:18:38;;;;;;;2.70;2.50;;;17.40;61.60;;;;;;5049078;28;20620;-38
2022/08/20 11:21:11;;;;;;;3.55;2.72;;;17.40;61.60;;;;;;5051783;28;20203;-36
2022/08/20 11:23:42;;;;;;;2.70;2.50;;;17.40;61.60;;;;;;5052162;28;20195;-36
2022/08/20 11:26:17;;;;;;;2.80;2.60;;;17.30;61.50;;;;;;5050869;28;20196;-41
2022/08/20 11:28:47;;;;;;;2.90;2.70;;;17.30;61.50;;;;;;5051391;28;20215;-41
2022/08/20 11:31:18;;;;;;;2.65;2.45;;;17.40;61.60;;;;;;5052290;28;20241;-36
2022/08/20 11:33:49;;;;;;;2.72;2.53;;;17.30;61.60;;;;;;5051261;28;20211;-35
2022/08/20 11:36:25;;;;;;;2.60;2.30;;;17.30;61.60;;;;;;5051848;28;20577;-36
2022/08/20 11:38:55;;;;;;;2.88;2.67;;;17.30;61.70;;;;;;5051720;28;20207;-36
2022/08/20 11:41:26;;;;;;;2.70;2.50;;;17.30;61.60;;;;;;5051656;28;20195;-40
2022/08/20 11:43:57;;;;;;;2.47;2.25;;;17.30;62.40;;;;;;5051342;28;20210;-46
2022/08/20 11:46:27;;;;;;;2.70;2.50;;;17.40;61.70;;;;;;5050603;28;20685;-39
2022/08/20 11:48:58;;;;;;;2.50;2.30;;;17.30;61.60;;;;;;5048333;28;20212;-36
2022/08/20 11:51:31;;;;;;;2.30;2.10;;;17.30;61.60;;;;;;5050602;28;20229;-37
2022/08/20 11:54:02;;;;;;;3.05;2.75;;;17.30;61.60;;;;;;5051642;28;20202;-36
2022/08/20 11:56:33;;;;;;;3.25;2.25;;;17.30;61.60;;;;;;5051217;28;20381;-36
2022/08/20 11:59:03;;;;;;;2.42;2.22;;;17.30;61.60;;;;;;5051422;28;20215;-42
2022/08/20 12:01:34;;;;;;;2.40;2.20;;;17.30;61.60;;;;;;5050756;28;20199;-36
2022/08/20 12:04:05;;;;;;;2.50;2.30;;;17.30;61.70;;;;;;5051151;28;20188;-36
2022/08/20 12:06:37;;;;;;;2.53;2.20;;;17.30;61.70;;;;;;5050895;28;20294;-43
2022/08/20 12:09:08;;;;;;;2.50;2.30;;;17.30;61.70;;;;;;5050304;28;20226;-36
2022/08/20 12:11:39;;;;;;;2.42;2.20;;;17.30;61.70;;;;;;5038744;28;20775;-41
2022/08/20 12:14:10;;;;;;;2.60;2.40;;;17.30;61.70;;;;;;5034724;28;20192;-41
2022/08/20 12:16:40;;;;;;;2.72;2.13;;;17.30;61.70;;;;;;5031078;28;20204;-36
2022/08/20 12:19:11;;;;;;;2.58;2.38;;;17.30;61.70;;;;;;5037174;28;20636;-40
2022/08/20 12:21:44;;;;;;;2.28;2.08;;;17.30;61.70;;;;;;5051105;28;20214;-36
2022/08/20 12:24:14;;;;;;;2.72;2.53;;;17.30;61.70;;;;;;5050693;28;20187;-37
2022/08/20 12:26:45;;;;;;;3.08;2.67;;;17.30;61.70;;;;;;5040988;28;20563;-38
2022/08/20 12:29:16;;;;;;;2.53;2.30;;;17.30;61.80;;;;;;5030418;28;20192;-36
2022/08/20 12:31:46;;;;;;;2.50;2.30;;;17.30;61.70;;;;;;5046194;28;20227;-42
2022/08/20 12:34:17;;;;;;;2.25;2.05;;;17.30;61.80;;;;;;5050380;28;20205;-36
2022/08/20 12:36:50;;;;;;;2.22;2.03;;;17.30;61.80;;;;;;5050799;28;20203;-40
2022/08/20 12:39:20;;;;;;;2.47;1.98;;;17.30;61.80;;;;;;5050442;28;20204;-36
2022/08/20 12:41:51;;;;;;;2.40;2.20;;;17.30;61.80;;;;;;5050241;28;20191;-36
2022/08/20 12:44:22;;;;;;;2.20;2.00;;;17.30;61.80;;;;;;5050724;28;20191;-51
2022/08/20 12:46:52;;;;;;;2.33;2.13;;;17.30;61.70;;;;;;5050986;28;20537;-36
2022/08/20 12:49:23;;;;;;;2.42;2.22;;;17.20;61.70;;;;;;5050262;28;20195;-43
2022/08/20 12:51:56;;;;;;;2.20;2.00;;;17.30;61.70;;;;;;5049074;28;20223;-38
2022/08/20 12:54:27;;;;;;;2.80;2.35;;;17.30;61.70;;;;;;5049599;28;20286;-42
2022/08/20 12:56:57;;;;;;;2.28;2.10;;;17.30;61.70;;;;;;5049727;28;20203;-43
2022/08/20 12:59:28;;;;;;;2.10;1.90;;;17.20;61.70;;;;;;5048798;28;20643;-43
2022/08/20 13:02:00;;;;;;;2.22;2.03;;;17.30;61.70;;;;;;5048974;28;20195;-37
2022/08/20 13:04:30;;;;;;;2.30;2.08;;;17.30;61.70;;;;;;5049271;28;20199;-53
2022/08/20 13:07:06;;;;;;;1.83;1.73;;;17.20;61.70;;;;;;5049125;28;20214;-40
2022/08/20 13:09:36;;;;;;;3.25;2.15;;;17.20;61.70;;;;;;5049407;28;20194;-37
2022/08/20 13:12:07;;;;;;;2.13;1.92;;;17.30;61.80;;;;;;5049208;28;20226;-45
2022/08/20 13:14:38;;;;;;;2.22;1.85;;;17.30;61.70;;;;;;5052973;28;20191;-37
2022/08/20 13:17:10;;;;;;;2.47;2.28;;;17.30;61.70;;;;;;5050370;28;20689;-44
2022/08/20 13:19:41;;;;;;;2.20;2.00;;;17.20;61.60;;;;;;5049310;28;20202;-39